Flight Track Log - Related Links

Times and Time Zones

All times are in EDT time to prevent confusion due to time zone crossing. See the VH-VJE flight status page for this flight to view local times or setup timezone preferences in your user account.

Time Position Orientation Groundspeed Altitude Reporting Facility
EDT Latitude Longitude Course Direction KTS MPH feet Rate Location/Type
Wed 04:56:02 PM -27.3880 153.1330 28° Northeast 16 18  Level FlightAware ADS-B
Wed 04:56:27 PM -27.3860 153.1340 24° Northeast 18 21 90 Level FlightAware ADS-B
Wed 04:56:57 PM -27.3850 153.1340 360° North 14 16 97 Level FlightAware ADS-B
Wed 04:57:27 PM -27.3840 153.1320 299° West 18 21 107 Level FlightAware ADS-B
Wed 04:57:42 PM -27.3820 153.1320 360° North 17 20 120 Level FlightAware ADS-B
Wed 04:59:32 PM -27.3810 153.1310 318° Northwest 6 7 128 Level FlightAware ADS-B
Wed 05:00:57 PM -27.3820 153.1300 222° Southwest 26 30 240 Level FlightAware ADS-B
Wed 05:01:22 PM -27.3890 153.1260 207° Southwest 120 138 750 Level FlightAware ADS-B
Wed 05:01:37 PM -27.3960 153.1220 207° Southwest 122 140 500 2,057 Climbing FlightAware ADS-B
Wed 05:01:57 PM -27.4057 153.1159 207° Southwest 103 119 1,200 1,200 Climbing Aus ATC (RADAR)
Wed 05:02:02 PM -27.4060 153.1150 207° Southwest 134 154 1,000  Descending FlightAware ADS-B
Wed 05:02:12 PM -27.4090 153.1080 244° Southwest 139 160 1,200 1,920 Climbing FlightAware ADS-B
Wed 05:02:27 PM -27.4059 153.0948 244° Southwest 138 159 1,800 1,600 Climbing Aus ATC (RADAR)
Wed 05:02:42 PM -27.4010 153.0880 244° Southwest 140 161 2,000 1,200 Climbing FlightAware ADS-B
Wed 05:03:07 PM -27.3900 153.0700 305° West 150 173 2,600 1,733 Climbing FlightAware ADS-B
Wed 05:03:27 PM -27.3803 153.0521 305° West 162 186 3,300 1,200 Climbing Aus ATC (RADAR)
Wed 05:03:37 PM -27.3770 153.0470 305° West 166 191 3,200 1,029 Descending FlightAware ADS-B
Wed 05:04:02 PM -27.3638 153.0238 305° West 179 206 3,900 1,200 Climbing Aus ATC (RADAR)
Wed 05:04:02 PM -27.3660 153.0270 305° West 176 203 3,700 400 Descending FlightAware ADS-B
Wed 05:04:32 PM -27.3510 153.0000 302° West 191 220 4,100 1,000 Climbing FlightAware ADS-B
Wed 05:05:02 PM -27.3370 152.9750 302° West 190 219 4,700 1,067 Climbing FlightAware ADS-B
Wed 05:05:17 PM -27.3290 152.9600 301° West 192 221 4,900 960 Climbing FlightAware ADS-B
Wed 05:05:27 PM -27.3260 152.9490 287° West 195 224 5,100 1,543 Climbing FlightAware ADS-B
Wed 05:05:52 PM -27.3200 152.9197 287° West 201 231 5,800 1,000 Climbing Aus ATC (RADAR)
Wed 05:05:57 PM -27.3200 152.9180 287° West 195 224 5,600 200 Descending FlightAware ADS-B
Wed 05:06:22 PM -27.3140 152.8920 285° West 204 235 5,900 750 Climbing FlightAware ADS-B
Wed 05:06:37 PM -27.3100 152.8740 284° West 203 234 6,100 1,067 Climbing FlightAware ADS-B
Wed 05:07:07 PM -27.3030 152.8430 284° West 201 231 6,700 1,091 Climbing FlightAware ADS-B
Wed 05:07:32 PM -27.2980 152.8190 283° West 196 226 7,100 1,091 Climbing FlightAware ADS-B
Wed 05:08:02 PM -27.2890 152.7840 286° West 194 223 7,700 1,469 Climbing FlightAware ADS-B
Wed 05:08:21 PM -27.2837 152.7585 286° West 206 237 8,300 1,200 Climbing Aus ATC (RADAR)
Wed 05:08:32 PM -27.2820 152.7510 286° West 197 227 8,300 692 Level FlightAware ADS-B
Wed 05:08:47 PM -27.2780 152.7370 288° West 199 229 8,600 1,350 Climbing FlightAware ADS-B
Wed 05:09:12 PM -27.2720 152.7100 284° West 197 227 9,200 1,091 Climbing FlightAware ADS-B
Wed 05:09:42 PM -27.2640 152.6790 286° West 201 231 9,600 655 Climbing FlightAware ADS-B
Wed 05:10:07 PM -27.2580 152.6520 284° West 213 245 9,800 450 Climbing FlightAware ADS-B
Wed 05:10:22 PM -27.2540 152.6360 286° West 223 257 9,900 133 Climbing FlightAware ADS-B
Wed 05:10:52 PM -27.2460 152.6000 284° West 230 265 9,900 -109 Level FlightAware ADS-B
Wed 05:11:17 PM -27.2390 152.5690 284° West 233 268 9,800 -109 Descending FlightAware ADS-B
Wed 05:11:47 PM -27.2310 152.5340 284° West 233 268 9,800 133 Level FlightAware ADS-B
Wed 05:12:02 PM -27.2280 152.5200 284° West 235 270 9,900 150 Climbing FlightAware ADS-B
Wed 05:12:27 PM -27.2200 152.4840 284° West 236 272 9,900 -109 Level FlightAware ADS-B
Wed 05:12:57 PM -27.2120 152.4470 284° West 237 273 9,800  Descending FlightAware ADS-B
Wed 05:13:22 PM -27.2040 152.4160 286° West 234 269 9,900 109 Climbing FlightAware ADS-B
Wed 05:13:52 PM -27.1940 152.3790 287° West 235 270 9,900  Level FlightAware ADS-B
Wed 05:14:22 PM -27.1850 152.3420 285° West 236 272 9,900  Level FlightAware ADS-B
Wed 05:14:47 PM -27.1770 152.3110 286° West 235 270 9,900 -150 Level FlightAware ADS-B
Wed 05:15:02 PM -27.1730 152.2930 284° West 235 270 9,800 -133 Descending FlightAware ADS-B
Wed 05:15:32 PM -27.1650 152.2540 283° West 237 273 9,800  Level FlightAware ADS-B
Wed 05:15:57 PM -27.1590 152.2250 283° West 236 272 9,800  Level FlightAware ADS-B
Wed 05:16:12 PM -27.1540 152.2040 285° West 236 272 9,800  Level FlightAware ADS-B
Wed 05:16:42 PM -27.1450 152.1680 286° West 237 273 9,800 109 Level FlightAware ADS-B
Wed 05:17:07 PM -27.1370 152.1370 286° West 235 270 9,900 150 Climbing FlightAware ADS-B
Wed 05:17:22 PM -27.1330 152.1180 283° West 237 273 9,900  Level FlightAware ADS-B
Wed 05:17:52 PM -27.1250 152.0800 283° West 239 275 9,900  Level FlightAware ADS-B
Wed 05:18:02 PM -27.1240 152.0740 281° West 237 273 9,900  Level FlightAware ADS-B
Wed 05:18:32 PM -27.1140 152.0330 285° West 238 274 9,900 250 Level FlightAware ADS-B
Wed 05:18:50 PM -27.1078 152.0051 285° West 239 275 10,100  Climbing Aus ATC (RADAR)
Wed 05:18:57 PM -27.1080 152.0040 285° West 237 273 9,900 -486 Descending FlightAware ADS-B
Wed 05:19:27 PM -27.0980 151.9660 286° West 235 270 9,800 -133 Descending FlightAware ADS-B
Wed 05:19:42 PM -27.0950 151.9490 281° West 235 270 9,800 53 Level FlightAware ADS-B
Wed 05:20:12 PM -27.0840 151.9080 287° West 9,800 56 Level FlightAware ADS-B
Wed 05:20:37 PM -27.0770 151.8810 286° West 9,800 66 Level FlightAware ADS-B
Wed 05:21:07 PM -27.0690 151.8420 283° West 9,800 76 Level FlightAware ADS-B
Wed 05:21:32 PM -27.0620 151.8120 285° West 9,800 94 Level FlightAware ADS-B
Wed 05:22:02 PM -27.0530 151.7750 285° West 9,800 117 Level FlightAware ADS-B
Wed 05:22:32 PM -27.0450 151.7380 284° West 9,800 164 Level FlightAware ADS-B
Wed 05:22:57 PM -27.0390 151.7120 285° West 9,800 279 Level FlightAware ADS-B
Wed 05:23:15 PM -27.0310 151.6834 285° West 235 270 10,000 226 Climbing Aus ATC (RADAR)
Wed 05:23:27 PM -27.0290 151.6750 285° West 9,800  Descending FlightAware ADS-B
Wed 05:23:50 PM -27.0206 151.6414 285° West 235 270 10,000 154 Climbing Aus ATC (RADAR)
Wed 05:23:52 PM -27.0210 151.6430 285° West 9,800  Descending FlightAware ADS-B
Wed 05:24:22 PM -27.0130 151.6070 284° West 9,800 226 Level FlightAware ADS-B
Wed 05:24:45 PM -27.0054 151.5750 284° West 235 270 10,000 -196 Climbing Aus ATC (RADAR)
Wed 05:24:47 PM -27.0070 151.5770 284° West 9,800 -323 Descending FlightAware ADS-B
Wed 05:25:17 PM -26.9980 151.5410 286° West 9,800 -234 Level FlightAware ADS-B
Wed 05:26:55 PM -26.9674 151.4200 285° West 235 270 9,300 -319 Descending Aus ATC (RADAR)
Wed 05:27:00 PM -26.9752 151.4453 285° West  Level Estimated
Wed 05:27:10 PM -26.9630 151.4021 285° West 236 272 9,200  Level Aus ATC (RADAR)
Wed 05:27:50 PM -26.9533 151.3560 283° West 223 257 8,900 -568 Descending Aus ATC (RADAR)
Wed 05:28:45 PM -26.9368 151.2935 286° West 228 262 8,300 -565 Descending Aus ATC (RADAR)
Wed 05:29:15 PM -26.9278 151.2592 286° West 227 261 8,100 -511 Descending Aus ATC (RADAR)
Wed 05:30:19 PM -26.9108 151.1844 284° West 227 261 7,500 -532 Descending Aus ATC (RADAR)
Wed 05:31:19 PM -26.8929 151.1146 286° West 232 267 7,000 -568 Descending Aus ATC (RADAR)
Wed 05:31:54 PM -26.8830 151.0736 285° West 233 268 6,600 -600 Descending Aus ATC (RADAR)
Wed 05:32:09 PM -26.8786 151.0542 284° West 244 281 6,500 -360 Descending Aus ATC (RADAR)
Wed 05:32:44 PM -26.8688 151.0128 285° West 235 270 6,300 -442 Descending Aus ATC (RADAR)
Wed 05:33:44 PM -26.8517 150.9429 285° West 231 266 5,800 -442 Descending Aus ATC (RADAR)
Wed 05:34:19 PM -26.8429 150.9019 284° West 230 265 5,600 -462 Descending Aus ATC (RADAR)
Wed 05:35:15 PM -26.8277 150.8384 285° West 228 262 5,100 -659 Descending Aus ATC (RADAR)
Wed 05:35:50 PM -26.8180 150.7980 285° West 228 262 4,600 -970 Descending Aus ATC (RADAR)
Wed 05:36:54 PM -26.8025 150.7265 284° West 224 258 3,500 -987 Descending Aus ATC (RADAR)
Wed 05:37:09 PM -26.7987 150.7094 284° West 225 259 3,300 -840 Descending Aus ATC (RADAR)
Wed 05:37:44 PM -26.7886 150.6724 287° West 214 246 2,800 -695 Descending Aus ATC (RADAR)
Wed 05:38:44 PM -26.7509 150.6347 318° Northwest 178 205 2,200 -568 Descending Aus ATC (RADAR)
Wed 05:39:19 PM -26.7354 150.6154 312° West 143 165 1,900 -514 Descending Aus ATC (RADAR)

Login

Don't have an account? Register now (free) for customized features, flight alerts, and more!